Flight Track Log - Related Links

Times and Time Zones

All times are in EDT time to prevent confusion due to time zone crossing. See the EJA839 flight status page for this flight to view local times or setup timezone preferences in your user account.

Time Position Orientation Groundspeed Altitude Reporting Facility
EDT Latitude Longitude Course Direction KTS MPH feet Rate Location/Type
Sat 03:04:28 PM 39.9833 -75.9000 180° South 214 246 1,700  Level Philadelphia TRACON
Sat 03:05:46 PM 39.9167 -75.9000 180° South 260 299 3,000 1,826 Climbing Philadelphia TRACON
Sat 03:06:46 PM 39.9167 -75.8167 90° East 260 299 5,900 2,350 Climbing Philadelphia TRACON
Sat 03:07:46 PM 39.9333 -75.7167 78° East 260 299 7,700 1,041 Climbing Philadelphia TRACON
Sat 03:08:47 PM 39.9500 -75.6167 78° East 278 320 8,000 149 Climbing Philadelphia TRACON
Sat 03:09:47 PM 39.9333 -75.5167 102° East 276 318 8,000 384 Level Philadelphia TRACON
Sat 03:10:52 PM 39.9167 -75.4167 102° East 276 318 8,800 1,150 Climbing Philadelphia TRACON
Sat 03:11:47 PM 39.9000 -75.3167 102° East 288 331 10,300 1,632 Climbing Philadelphia TRACON
Sat 03:12:46 PM 39.8833 -75.2167 102° East 312 359 11,900 548 Climbing Philadelphia TRACON
Sat 03:14:53 PM 39.8383 -74.9775 104° East 363 418 12,000 32 Climbing New York Center
Sat 03:15:53 PM 39.8142 -74.8408 103° East 358 412 12,000  Level New York Center
Sat 03:16:52 PM 39.7956 -74.7128 101° East 358 412 12,000  Level New York Center
Sat 03:17:52 PM 39.8039 -74.5864 85° East 353 406 12,000  Level New York Center
Sat 03:18:53 PM 39.8136 -74.4733 84° East 348 400 12,000 149 Level New York Center
Sat 03:19:53 PM 39.8219 -74.3386 85° East 348 400 12,300 706 Climbing New York Center
Sat 03:20:52 PM 39.8808 -74.2522 48° Northeast 318 366 13,400 1,951 Climbing New York Center
Sat 03:23:16 PM 40.0200 -74.0194 52° Northeast 335 386 18,900 2,176 Climbing Boston Center
Sat 03:24:16 PM 40.0797 -73.9125 54° Northeast 347 399 20,800 1,050 Climbing Boston Center
Sat 03:25:16 PM 40.1375 -73.7972 57° Northeast 359 413 21,000 100 Climbing Boston Center
Sat 03:26:16 PM 40.1992 -73.6869 54° Northeast 364 419 21,000  Level Boston Center
Sat 03:27:16 PM 40.2586 -73.5739 55° Northeast 371 427 21,000  Level Boston Center
Sat 03:28:16 PM 40.3203 -73.4608 54° Northeast 371 427 21,000  Level Boston Center
Sat 03:29:16 PM 40.3753 -73.3444 58° Northeast 371 427 21,000  Level Boston Center
Sat 03:30:16 PM 40.4303 -73.2253 59° Northeast 371 427 21,000  Level Boston Center
Sat 03:31:16 PM 40.4708 -73.0975 67° East 371 427 21,000  Level Boston Center
Sat 03:32:16 PM 40.5008 -72.9642 73° East 377 434 21,000  Level Boston Center
Sat 03:33:16 PM 40.5344 -72.8306 72° East 377 434 21,000 -300 Level Boston Center
Sat 03:34:16 PM 40.5767 -72.7050 66° East 377 434 20,400 -950 Descending Boston Center
Sat 03:35:16 PM 40.6414 -72.5961 52° Northeast 375 432 19,100 -1,000 Descending Boston Center
Sat 03:36:16 PM 40.6978 -72.5031 51° Northeast 375 432 18,400 -900 Descending Boston Center
Sat 03:37:16 PM 40.7603 -72.3961 52° Northeast 370 426 17,300 -1,400 Descending Boston Center
Sat 03:38:16 PM 40.8247 -72.2947 50° Northeast 365 420 15,600 -1,626 Descending Boston Center
Sat 03:39:03 PM 40.8706 -72.2289 47° Northeast 354 407 14,400 -1,400 Descending Boston Center
Sat 03:40:16 PM 40.9431 -72.0967 54° Northeast 345 397 12,800 -1,465 Descending Boston Center
Sat 03:41:10 PM 41.0011 -72.0083 49° Northeast 329 379 11,300 -1,565 Descending Boston Center
Sat 03:42:11 PM 41.0633 -71.9392 40° Northeast 284 327 9,800 -1,619 Descending Boston Center
Sat 03:43:16 PM 41.1319 -71.8753 35° Northeast 280 322 7,900 -1,344 Descending Boston Center
Sat 03:44:16 PM 41.1858 -71.8222 37° Northeast 274 315 7,000 -1,040 Descending Boston Center
Sat 03:44:31 PM 41.2044 -71.8028 38° Northeast 271 312 6,600 -1,300 Descending Boston Center
Sat 03:45:16 PM 41.2500 -71.7608 35° Northeast 268 308 5,700 -1,000 Descending Boston Center
Sat 03:45:31 PM 41.2625 -71.7469 40° Northeast 269 310 5,600 -724 Descending Boston Center
Sat 03:46:14 PM 41.3081 -71.7050 35° Northeast 265 305 5,000 -750 Descending Boston Center
Sat 03:47:15 PM 41.3639 -71.6464 38° Northeast 260 299 4,300 -689 Descending Boston Center
Sat 03:48:16 PM 41.4178 -71.5931 37° Northeast 261 300 3,600 -645 Descending Boston Center
Sat 03:49:16 PM 41.4694 -71.5425 36° Northeast 256 295 3,000 -550 Descending Boston Center
Sat 03:50:16 PM 41.5314 -71.4917 32° Northeast 238 274 2,500 -672 Descending Boston Center
Sat 03:51:30 PM 41.5983 -71.4908 North 178 205 1,500 -800 Descending Boston Center
Sat 03:52:16 PM 41.6167 -71.4628 49° Northeast 149 171 900 -716 Descending Boston Center
Sat 03:52:37 PM 41.6186 -71.4433 82° East 136 157 700 -571 Descending Boston Center
Sat 03:57:00 PM 41.5971 -71.4121 246° West  Level Estimated
Sat 04:04:00 PM 41.5971 -71.4121 246° West  Level Estimated
Sat 04:05:00 PM 41.5971 -71.4121 246° West  Level Estimated
Sat 04:06:00 PM 41.5971 -71.4121 246° West  Level Estimated
Sat 04:07:00 PM 41.5971 -71.4121 246° West  Level Estimated

Login

Don't have an account? Register now (free) for customized features, flight alerts, and more!